Time;durP1;ratioP1;P1;durP2;ratioP2;P2;SDS_P1;SDS_P2;PMS_P1;PMS_P2;Temp;Humidity;BMP_temperature;BMP_pressure;BME280_temperature;BME280_humidity;BME280_pressure;Samples;Min_cycle;Max_cycle;Signal;HPM_P1;HPM_P2
2021/03/06 08:15:38;;;;;;;7.33;3.60;;;10.70;91.10;;;;;;4934883;29;20259;-72
2021/03/06 08:18:31;;;;;;;6.03;3.20;;;10.80;90.90;;;;;;4936847;29;20213;-72
2021/03/06 08:21:26;;;;;;;7.00;3.63;;;10.90;90.40;;;;;;4932442;29;20240;-69
2021/03/06 08:24:22;;;;;;;4.63;3.13;;;11.30;90.50;;;;;;4935543;29;20213;-70
2021/03/06 08:27:09;;;;;;;6.03;2.60;;;10.70;89.80;;;;;;4935128;29;20213;-73
2021/03/06 08:29:36;;;;;;;4.57;2.70;;;10.20;90.80;;;;;;4930924;29;20212;-74
2021/03/06 08:32:06;;;;;;;5.60;3.10;;;9.40;91.90;;;;;;4935500;29;20211;-71
2021/03/06 08:34:33;;;;;;;3.53;2.27;;;9.00;92.30;;;;;;4935598;29;20259;-72
2021/03/06 08:37:35;;;;;;;5.17;2.80;;;8.70;92.00;;;;;;4935041;29;20694;-72
2021/03/06 08:40:11;;;;;;;3.97;2.40;;;8.60;92.00;;;;;;4935019;29;20239;-70
2021/03/06 08:42:40;;;;;;;4.00;2.57;;;8.20;92.20;;;;;;4935083;29;20308;-73
2021/03/06 08:45:10;;;;;;;4.23;2.40;;;8.40;91.60;;;;;;4935368;29;20209;-73
2021/03/06 08:47:37;;;;;;;6.73;2.47;;;8.80;92.20;;;;;;4936163;29;20204;-72
2021/03/06 08:50:07;;;;;;;4.50;2.60;;;9.50;92.10;;;;;;4936182;29;20233;-72
2021/03/06 08:52:33;;;;;;;5.13;2.07;;;9.90;90.90;;;;;;4936080;29;20209;-72
2021/03/06 08:55:00;;;;;;;3.57;2.13;;;9.80;89.90;;;;;;4936204;29;20215;-72
2021/03/06 08:57:31;;;;;;;3.17;1.97;;;9.60;90.50;;;;;;4936222;29;20271;-72
2021/03/06 08:59:59;;;;;;;3.60;2.07;;;9.40;90.70;;;;;;4936106;29;20224;-72
2021/03/06 09:02:28;;;;;;;2.87;2.07;;;9.80;90.70;;;;;;4936207;29;20236;-72
2021/03/06 09:05:03;;;;;;;4.30;2.30;;;9.90;90.00;;;;;;4935978;29;20686;-72
2021/03/06 09:07:30;;;;;;;5.50;2.37;;;9.70;90.30;;;;;;4935620;29;20660;-72
2021/03/06 09:10:11;;;;;;;4.13;2.20;;;10.20;88.80;;;;;;4935015;29;20711;-73
2021/03/06 09:12:39;;;;;;;3.20;2.00;;;10.40;87.50;;;;;;4935422;29;20219;-72
2021/03/06 09:15:07;;;;;;;6.30;2.53;;;10.10;87.70;;;;;;4935440;29;20209;-72
2021/03/06 09:17:33;;;;;;;4.23;2.00;;;9.70;89.10;;;;;;4935205;29;20219;-73
2021/03/06 09:20:03;;;;;;;3.57;2.17;;;9.20;90.30;;;;;;4935536;29;20326;-73
2021/03/06 09:22:39;;;;;;;3.87;2.30;;;8.70;90.90;;;;;;4935425;29;20240;-72
2021/03/06 09:25:07;;;;;;;5.17;2.67;;;8.50;90.60;;;;;;4935300;29;20251;-72
2021/03/06 09:27:43;;;;;;;3.80;2.13;;;8.30;91.10;;;;;;4935794;29;20213;-72
2021/03/06 09:30:20;;;;;;;8.83;2.40;;;7.60;92.00;;;;;;4935587;29;20303;-72
2021/03/06 09:32:47;;;;;;;4.23;2.40;;;7.00;92.40;;;;;;4935944;29;20323;-72
2021/03/06 09:35:15;;;;;;;4.23;2.10;;;6.50;94.00;;;;;;4932753;29;20205;-71
2021/03/06 09:37:42;;;;;;;6.23;2.40;;;6.10;94.50;;;;;;4934763;29;20205;-75
2021/03/06 09:40:20;;;;;;;4.83;2.57;;;6.00;95.60;;;;;;4934108;29;20329;-73
2021/03/06 09:42:50;;;;;;;5.80;2.77;;;5.90;94.70;;;;;;4933894;29;20359;-72
2021/03/06 09:45:17;;;;;;;3.13;1.90;;;5.70;95.40;;;;;;4934114;29;20660;-76
2021/03/06 09:47:44;;;;;;;3.87;2.30;;;5.30;95.30;;;;;;4934100;29;20575;-81
2021/03/06 09:50:12;;;;;;;2.90;2.13;;;5.20;96.20;;;;;;4934348;29;20723;-73
2021/03/06 09:52:39;;;;;;;2.87;2.10;;;5.10;95.70;;;;;;4934216;29;20217;-75
2021/03/06 09:55:17;;;;;;;3.50;2.47;;;5.10;96.50;;;;;;4934113;29;20296;-72
2021/03/06 09:57:44;;;;;;;6.20;2.40;;;5.30;96.20;;;;;;4934061;29;20212;-71
2021/03/06 10:00:25;;;;;;;4.50;2.83;;;5.40;96.20;;;;;;4934272;29;20232;-70
2021/03/06 10:02:52;;;;;;;4.37;2.30;;;5.40;96.00;;;;;;4934348;29;20678;-71
2021/03/06 10:05:23;;;;;;;3.20;2.20;;;5.30;96.10;;;;;;4933657;29;20291;-75
2021/03/06 10:07:54;;;;;;;4.67;2.40;;;5.40;96.20;;;;;;4934084;29;20220;-72
2021/03/06 10:10:24;;;;;;;4.17;2.30;;;5.50;96.60;;;;;;4934229;29;20707;-75
2021/03/06 10:12:51;;;;;;;3.03;2.17;;;5.60;96.60;;;;;;4935531;29;20216;-74
2021/03/06 10:15:17;;;;;;;3.20;2.27;;;5.70;96.20;;;;;;4935143;29;20208;-72
2021/03/06 10:17:45;;;;;;;3.20;2.30;;;5.60;95.40;;;;;;4935208;29;20268;-70
2021/03/06 10:20:12;;;;;;;4.77;2.27;;;5.40;95.80;;;;;;4935339;29;20229;-72
2021/03/06 10:22:46;;;;;;;3.10;2.03;;;5.40;95.10;;;;;;4935796;29;20244;-70
2021/03/06 10:25:22;;;;;;;2.40;2.13;;;5.40;95.60;;;;;;4938976;29;20216;-70
2021/03/06 10:27:49;;;;;;;3.73;1.73;;;5.40;95.50;;;;;;4938840;29;20209;-70
2021/03/06 10:30:18;;;;;;;3.90;2.13;;;5.50;95.60;;;;;;4938872;29;20233;-70
2021/03/06 10:32:46;;;;;;;3.83;2.10;;;5.60;95.00;;;;;;4939133;29;20213;-70
2021/03/06 10:35:37;;;;;;;5.43;2.17;;;5.60;94.90;;;;;;4939080;29;20276;-73
2021/03/06 10:38:05;;;;;;;3.03;2.00;;;5.60;95.30;;;;;;4938741;29;20225;-74
2021/03/06 10:40:46;;;;;;;4.60;2.60;;;5.70;95.70;;;;;;4938611;29;20240;-70
2021/03/06 10:43:28;;;;;;;2.13;1.60;;;5.80;94.70;;;;;;4938610;29;20568;-71
2021/03/06 10:45:54;;;;;;;5.37;1.93;;;6.00;93.90;;;;;;4934348;29;20208;-72
2021/03/06 10:48:32;;;;;;;3.07;1.77;;;6.00;94.00;;;;;;4937794;29;20213;-73
2021/03/06 10:50:58;;;;;;;2.93;1.73;;;5.90;94.20;;;;;;4938279;29;20232;-70
2021/03/06 10:53:27;;;;;;;3.47;1.80;;;6.00;93.90;;;;;;4938175;29;20209;-71
2021/03/06 10:55:54;;;;;;;2.83;1.70;;;5.80;94.10;;;;;;4938093;29;20215;-73
2021/03/06 10:58:21;;;;;;;3.50;1.80;;;6.00;94.20;;;;;;4938276;29;20200;-73
2021/03/06 11:00:59;;;;;;;3.60;1.90;;;6.30;93.40;;;;;;4937727;29;20268;-74
2021/03/06 11:03:38;;;;;;;6.03;1.77;;;6.50;92.50;;;;;;4938001;29;20671;-73
2021/03/06 11:06:06;;;;;;;2.93;2.00;;;6.40;91.30;;;;;;4938294;29;20209;-74
2021/03/06 11:08:32;;;;;;;2.70;1.50;;;6.20;91.80;;;;;;4938273;29;20209;-70
2021/03/06 11:10:59;;;;;;;3.17;1.50;;;6.20;92.00;;;;;;4938139;29;20247;-74
2021/03/06 11:13:37;;;;;;;2.50;1.80;;;6.10;92.50;;;;;;4938051;29;20268;-74
2021/03/06 11:16:04;;;;;;;2.17;1.73;;;6.10;92.70;;;;;;4937779;29;20623;-73
2021/03/06 11:18:31;;;;;;;4.57;2.43;;;6.20;92.10;;;;;;4937798;29;20789;-71
2021/03/06 11:20:57;;;;;;;2.43;1.80;;;6.20;91.30;;;;;;4937763;29;20243;-74
2021/03/06 11:23:24;;;;;;;2.20;1.53;;;6.20;91.90;;;;;;4937798;29;20217;-75
2021/03/06 11:25:50;;;;;;;4.87;2.10;;;6.30;91.40;;;;;;4938328;29;20600;-74
2021/03/06 11:28:17;;;;;;;3.40;1.70;;;6.50;92.00;;;;;;4937816;29;20215;-74
2021/03/06 11:30:44;;;;;;;3.30;1.83;;;6.60;91.30;;;;;;4937556;29;20284;-74
2021/03/06 11:33:12;;;;;;;3.13;1.97;;;6.60;91.10;;;;;;4937573;29;20251;-72
2021/03/06 11:35:39;;;;;;;5.27;2.40;;;6.50;90.80;;;;;;4937563;29;20212;-75
2021/03/06 11:38:07;;;;;;;3.63;2.43;;;6.30;90.60;;;;;;4938209;29;20303;-72
2021/03/06 11:40:36;;;;;;;3.60;1.87;;;6.30;91.40;;;;;;4937519;29;20233;-72
2021/03/06 11:43:03;;;;;;;2.50;1.77;;;6.40;90.90;;;;;;4937446;29;20212;-74
2021/03/06 11:45:29;;;;;;;3.17;1.90;;;6.40;91.60;;;;;;4937214;29;20239;-75
2021/03/06 11:47:56;;;;;;;3.83;2.03;;;6.30;91.00;;;;;;4937573;29;20209;-72
2021/03/06 11:50:25;;;;;;;5.00;2.20;;;6.40;91.10;;;;;;4937483;29;20565;-72
2021/03/06 11:52:51;;;;;;;4.00;1.93;;;6.40;91.60;;;;;;4937440;29;20232;-75
2021/03/06 11:55:18;;;;;;;2.97;1.83;;;6.50;91.20;;;;;;4937215;29;20224;-72
2021/03/06 11:57:45;;;;;;;3.47;1.77;;;6.50;91.60;;;;;;4937116;29;20671;-70
2021/03/06 12:00:14;;;;;;;3.57;2.00;;;6.60;90.60;;;;;;4937144;29;20229;-71
2021/03/06 12:02:41;;;;;;;2.43;1.83;;;6.90;90.30;;;;;;4937293;29;20237;-71
2021/03/06 12:05:09;;;;;;;5.67;2.17;;;6.70;90.20;;;;;;4937227;29;20233;-72
2021/03/06 12:07:36;;;;;;;3.73;2.10;;;6.40;90.30;;;;;;4937236;29;20651;-71
2021/03/06 12:10:03;;;;;;;2.83;1.87;;;6.60;90.90;;;;;;4936859;29;20232;-73
2021/03/06 12:12:30;;;;;;;5.43;2.03;;;6.90;90.80;;;;;;4936821;29;20216;-72
2021/03/06 12:14:57;;;;;;;3.27;1.80;;;7.10;90.60;;;;;;4937015;29;20217;-73
2021/03/06 12:17:23;;;;;;;4.03;1.90;;;7.20;89.70;;;;;;4937138;29;20248;-72
2021/03/06 12:19:50;;;;;;;3.97;1.77;;;7.10;90.80;;;;;;4936570;29;20668;-73
2021/03/06 12:22:16;;;;;;;4.13;2.03;;;7.20;88.50;;;;;;4936876;29;20229;-73
2021/03/06 12:24:43;;;;;;;4.00;2.30;;;7.30;87.30;;;;;;4936577;29;20209;-72
2021/03/06 12:27:09;;;;;;;2.73;1.83;;;7.50;87.70;;;;;;4936580;29;20220;-72
2021/03/06 12:29:35;;;;;;;3.40;2.10;;;7.40;87.40;;;;;;4936888;29;20231;-73
2021/03/06 12:32:03;;;;;;;5.00;1.93;;;7.40;87.50;;;;;;4936669;29;20268;-73
2021/03/06 12:34:29;;;;;;;3.53;2.13;;;7.40;88.20;;;;;;4936637;29;20668;-73
2021/03/06 12:36:55;;;;;;;4.17;2.23;;;7.40;88.30;;;;;;4936411;29;20220;-72
2021/03/06 12:39:21;;;;;;;4.20;2.37;;;7.30;87.20;;;;;;4936430;29;20224;-73
2021/03/06 12:41:49;;;;;;;5.27;2.80;;;7.10;88.10;;;;;;4936337;29;20245;-72
2021/03/06 12:44:15;;;;;;;3.77;2.07;;;7.00;90.20;;;;;;4936425;29;20658;-73
2021/03/06 12:46:42;;;;;;;4.07;2.03;;;7.10;89.70;;;;;;4935725;29;20676;-73
2021/03/06 12:49:09;;;;;;;3.30;2.03;;;7.10;89.00;;;;;;4936326;29;20212;-73
2021/03/06 12:51:35;;;;;;;145.07;50.63;;;7.20;88.90;;;;;;4936163;29;20251;-72
2021/03/06 12:54:02;;;;;;;4.73;2.53;;;7.30;87.10;;;;;;4936196;29;20212;-73
2021/03/06 12:56:28;;;;;;;3.33;2.03;;;7.30;86.40;;;;;;4936285;29;20264;-73
2021/03/06 12:58:54;;;;;;;4.83;1.67;;;7.30;86.90;;;;;;4936298;29;20217;-72
2021/03/06 13:01:20;;;;;;;2.97;1.73;;;7.20;87.20;;;;;;4935985;29;20292;-73
2021/03/06 13:03:47;;;;;;;3.43;1.70;;;7.40;85.80;;;;;;4936135;29;20216;-73
2021/03/06 13:06:14;;;;;;;2.83;1.70;;;7.50;85.40;;;;;;4936063;29;20695;-73
2021/03/06 13:08:40;;;;;;;3.03;1.40;;;7.50;84.60;;;;;;4935812;29;20216;-72
2021/03/06 13:11:06;;;;;;;3.33;1.50;;;7.40;83.40;;;;;;4936222;29;20236;-73
2021/03/06 13:13:32;;;;;;;1.67;1.13;;;7.40;84.10;;;;;;4935759;29;20232;-73
2021/03/06 13:15:59;;;;;;;1.50;1.20;;;7.40;84.10;;;;;;4936090;29;20209;-73
2021/03/06 13:18:25;;;;;;;2.90;1.40;;;7.60;83.30;;;;;;4936060;29;20213;-71
2021/03/06 13:20:53;;;;;;;2.17;1.40;;;7.70;83.70;;;;;;4935667;29;20228;-71
2021/03/06 13:23:21;;;;;;;1.97;1.20;;;7.80;82.40;;;;;;4935674;29;20216;-72
2021/03/06 13:25:47;;;;;;;1.77;1.20;;;7.90;81.60;;;;;;4935774;29;20747;-72
2021/03/06 13:28:14;;;;;;;3.53;1.20;;;7.70;81.50;;;;;;4936052;29;20353;-73
2021/03/06 13:30:40;;;;;;;1.27;0.90;;;7.70;80.00;;;;;;4935789;29;20235;-73
2021/03/06 13:33:06;;;;;;;4.17;1.20;;;7.80;81.80;;;;;;4935803;29;20287;-72
2021/03/06 13:35:33;;;;;;;2.07;1.17;;;7.80;81.50;;;;;;4935709;29;20212;-73
2021/03/06 13:37:59;;;;;;;1.27;0.97;;;8.10;79.20;;;;;;4935239;29;20212;-73
2021/03/06 13:40:27;;;;;;;2.80;1.20;;;8.20;80.40;;;;;;4934501;29;20237;-71
2021/03/06 13:42:53;;;;;;;5.03;1.10;;;8.30;78.50;;;;;;4932922;29;20635;-73
2021/03/06 13:45:19;;;;;;;2.40;0.90;;;8.30;77.50;;;;;;4935356;29;20247;-71
2021/03/06 13:47:46;;;;;;;3.23;1.43;;;8.10;78.70;;;;;;4935599;29;20255;-71
2021/03/06 13:50:14;;;;;;;3.43;1.20;;;7.80;79.30;;;;;;4935281;29;20705;-73
2021/03/06 13:52:41;;;;;;;1.33;0.83;;;7.50;81.20;;;;;;4935562;29;20217;-73
2021/03/06 13:55:09;;;;;;;2.37;1.00;;;7.60;79.10;;;;;;4935888;29;20255;-73
2021/03/06 13:57:37;;;;;;;2.00;1.20;;;7.80;80.20;;;;;;4937303;29;20687;-74
2021/03/06 14:00:04;;;;;;;1.13;1.00;;;8.00;78.70;;;;;;4939053;29;20711;-73
2021/03/06 14:02:31;;;;;;;1.43;0.90;;;8.10;75.50;;;;;;4939330;29;20240;-73
2021/03/06 14:04:57;;;;;;;2.33;1.03;;;8.10;76.50;;;;;;4939135;29;20208;-73
2021/03/06 14:07:23;;;;;;;1.23;0.90;;;7.80;77.50;;;;;;4939309;29;20220;-73
2021/03/06 14:09:50;;;;;;;1.60;1.10;;;7.90;78.70;;;;;;4939664;29;20211;-71
2021/03/06 14:12:16;;;;;;;2.60;1.13;;;8.00;79.60;;;;;;4939107;29;20342;-71
2021/03/06 14:14:43;;;;;;;1.10;0.87;;;7.90;79.40;;;;;;4938857;29;20283;-70
2021/03/06 14:17:10;;;;;;;3.17;1.30;;;7.80;77.70;;;;;;4938885;29;20213;-71
2021/03/06 14:19:36;;;;;;;2.37;1.20;;;7.90;78.90;;;;;;4938809;29;20215;-74
2021/03/06 14:22:03;;;;;;;1.60;1.07;;;8.10;79.00;;;;;;4938886;29;20599;-71
2021/03/06 14:24:29;;;;;;;1.87;1.20;;;8.10;77.90;;;;;;4935339;29;20545;-73
2021/03/06 14:26:59;;;;;;;2.33;1.20;;;7.80;76.20;;;;;;4940903;29;20209;-75
2021/03/06 14:29:29;;;;;;;1.90;1.20;;;7.70;77.30;;;;;;4950051;29;20205;-75
2021/03/06 14:31:56;;;;;;;4.90;1.10;;;7.60;76.70;;;;;;4948215;29;20229;-72
2021/03/06 14:34:25;;;;;;;2.47;1.47;;;7.50;77.70;;;;;;4948925;29;20215;-75
2021/03/06 14:36:52;;;;;;;1.47;0.90;;;7.70;78.60;;;;;;4951571;29;20216;-73
2021/03/06 14:39:20;;;;;;;1.20;1.10;;;7.80;74.80;;;;;;4952067;29;20237;-73
2021/03/06 14:41:47;;;;;;;1.90;1.20;;;7.90;76.20;;;;;;4947861;29;20232;-73
2021/03/06 14:44:14;;;;;;;2.00;1.23;;;7.90;75.40;;;;;;4949423;29;20219;-73
2021/03/06 14:46:40;;;;;;;2.13;1.27;;;7.80;75.70;;;;;;4948415;29;20215;-75
2021/03/06 14:49:08;;;;;;;2.37;1.07;;;7.70;76.80;;;;;;4952950;29;20212;-72
2021/03/06 14:51:35;;;;;;;3.73;1.00;;;7.70;76.20;;;;;;4946856;29;20643;-74
2021/03/06 14:54:02;;;;;;;1.77;1.10;;;7.80;76.00;;;;;;4939277;29;20209;-73
2021/03/06 14:56:30;;;;;;;1.50;1.30;;;7.70;77.20;;;;;;4941114;29;20615;-72
2021/03/06 14:58:57;;;;;;;2.73;1.40;;;7.60;75.80;;;;;;4953007;29;20205;-74
2021/03/06 15:01:23;;;;;;;2.33;1.37;;;7.50;75.90;;;;;;4950300;29;20241;-70
2021/03/06 15:03:50;;;;;;;1.67;1.40;;;7.60;76.60;;;;;;4938857;29;20205;-70
2021/03/06 15:06:17;;;;;;;1.80;1.17;;;7.50;74.10;;;;;;4938700;29;20344;-71
2021/03/06 15:08:44;;;;;;;3.47;1.30;;;7.60;75.50;;;;;;4937923;29;20240;-72
2021/03/06 15:11:10;;;;;;;2.40;1.30;;;7.70;75.90;;;;;;4938419;29;20696;-71
2021/03/06 15:13:37;;;;;;;2.63;1.30;;;7.60;75.50;;;;;;4938554;29;20694;-71
2021/03/06 15:16:04;;;;;;;2.80;1.50;;;7.60;76.90;;;;;;4938067;29;20236;-71
2021/03/06 15:18:30;;;;;;;2.90;1.93;;;7.60;76.40;;;;;;4938460;29;20296;-71
2021/03/06 15:20:57;;;;;;;2.53;1.20;;;7.70;76.70;;;;;;4937915;29;20272;-71
2021/03/06 15:23:24;;;;;;;5.43;1.40;;;7.80;77.00;;;;;;4938228;29;20239;-72
2021/03/06 15:25:50;;;;;;;3.03;1.30;;;7.70;77.90;;;;;;4937707;29;20213;-72
2021/03/06 15:28:16;;;;;;;4.60;1.33;;;7.80;77.90;;;;;;4937674;29;20213;-72
2021/03/06 15:30:42;;;;;;;2.63;1.30;;;7.60;77.50;;;;;;4937737;29;20225;-72
2021/03/06 15:33:09;;;;;;;2.33;1.40;;;7.60;78.60;;;;;;4937625;29;20280;-72
2021/03/06 15:35:35;;;;;;;2.63;1.53;;;7.60;78.90;;;;;;4937471;29;20216;-72
2021/03/06 15:38:02;;;;;;;3.47;1.50;;;7.60;79.00;;;;;;4937518;29;20236;-72
2021/03/06 15:40:29;;;;;;;3.03;1.60;;;7.40;78.00;;;;;;4937519;29;20587;-72
2021/03/06 15:42:55;;;;;;;1.97;1.23;;;7.40;76.70;;;;;;4937307;29;20244;-72
2021/03/06 15:45:22;;;;;;;2.83;1.30;;;7.40;77.00;;;;;;4937612;29;20217;-72
2021/03/06 15:47:49;;;;;;;4.53;2.57;;;7.30;76.90;;;;;;4937641;29;20224;-72
2021/03/06 15:50:15;;;;;;;3.57;1.83;;;7.40;78.10;;;;;;4937367;29;20239;-72
2021/03/06 15:52:41;;;;;;;2.47;1.40;;;7.40;78.30;;;;;;4937098;29;20209;-72
2021/03/06 15:55:10;;;;;;;2.27;1.90;;;7.20;79.10;;;;;;4937145;29;20684;-72
2021/03/06 15:57:37;;;;;;;2.80;1.40;;;7.20;81.40;;;;;;4937172;29;20209;-73
2021/03/06 16:00:05;;;;;;;1.67;1.20;;;7.20;83.50;;;;;;4936859;29;20244;-72
2021/03/06 16:02:32;;;;;;;4.00;1.33;;;7.40;83.70;;;;;;4936919;29;20264;-72
2021/03/06 16:04:58;;;;;;;3.47;1.30;;;7.50;84.10;;;;;;4936923;29;20217;-73
2021/03/06 16:07:24;;;;;;;2.23;1.20;;;7.40;82.50;;;;;;4936943;29;20620;-72
2021/03/06 16:09:51;;;;;;;2.60;1.47;;;7.30;82.50;;;;;;4936719;29;20213;-72
2021/03/06 16:12:17;;;;;;;2.00;1.40;;;7.20;83.70;;;;;;4936939;29;20215;-72
2021/03/06 16:14:44;;;;;;;2.63;1.60;;;7.20;83.70;;;;;;4936986;29;20224;-72
2021/03/06 16:17:10;;;;;;;3.17;1.30;;;7.20;84.10;;;;;;4936940;29;20212;-72
2021/03/06 16:19:36;;;;;;;2.07;1.20;;;7.00;84.90;;;;;;4936842;29;20216;-72
2021/03/06 16:22:03;;;;;;;2.70;1.40;;;6.90;84.60;;;;;;4936143;29;20291;-71
2021/03/06 16:24:29;;;;;;;3.40;1.33;;;7.00;85.40;;;;;;4936770;29;20220;-71
2021/03/06 16:26:56;;;;;;;2.30;1.30;;;7.00;85.20;;;;;;4936778;29;20212;-71
2021/03/06 16:29:22;;;;;;;3.50;1.40;;;7.00;83.80;;;;;;4936453;29;20213;-71
2021/03/06 16:31:49;;;;;;;7.50;1.60;;;7.00;83.20;;;;;;4936396;29;20233;-72
2021/03/06 16:34:16;;;;;;;2.67;1.50;;;6.90;83.90;;;;;;4936546;29;20668;-71
2021/03/06 16:36:43;;;;;;;7.10;2.03;;;6.90;85.30;;;;;;4936452;29;20682;-71
2021/03/06 16:39:09;;;;;;;3.30;1.70;;;6.80;84.60;;;;;;4936433;29;20217;-71
2021/03/06 16:41:35;;;;;;;2.20;1.33;;;6.80;84.50;;;;;;4936470;29;20243;-71
2021/03/06 16:44:05;;;;;;;4.07;1.60;;;6.80;85.10;;;;;;4936224;29;20213;-72
2021/03/06 16:46:33;;;;;;;3.63;1.53;;;6.70;85.70;;;;;;4936232;29;20216;-71
2021/03/06 16:49:00;;;;;;;3.53;1.50;;;6.70;86.00;;;;;;4936207;29;20263;-71
2021/03/06 16:51:26;;;;;;;2.20;1.53;;;6.70;85.70;;;;;;4935826;29;20588;-71
2021/03/06 16:53:53;;;;;;;3.23;1.53;;;6.70;86.60;;;;;;4936330;29;20216;-71
2021/03/06 16:56:19;;;;;;;4.67;1.70;;;6.60;86.10;;;;;;4936161;29;20208;-72
2021/03/06 16:58:47;;;;;;;2.33;1.40;;;6.60;86.60;;;;;;4936306;29;20217;-71
2021/03/06 17:01:13;;;;;;;3.00;1.80;;;6.50;87.60;;;;;;4935790;29;20228;-72
2021/03/06 17:03:40;;;;;;;2.13;1.37;;;6.40;88.30;;;;;;4936049;29;20785;-70
2021/03/06 17:06:07;;;;;;;2.37;1.50;;;6.50;88.30;;;;;;4935904;29;20228;-70
2021/03/06 17:08:33;;;;;;;2.43;1.77;;;6.50;87.40;;;;;;4936076;29;20268;-70
2021/03/06 17:10:59;;;;;;;3.40;1.80;;;6.50;88.10;;;;;;4936051;29;20244;-70
2021/03/06 17:13:25;;;;;;;4.03;1.97;;;6.40;88.70;;;;;;4935898;29;20216;-70
2021/03/06 17:15:52;;;;;;;1.97;1.63;;;6.40;89.20;;;;;;4935674;29;20576;-70
2021/03/06 17:18:18;;;;;;;4.43;2.17;;;6.30;88.80;;;;;;4935696;29;20216;-70
2021/03/06 17:20:44;;;;;;;6.17;2.30;;;6.20;89.70;;;;;;4935441;29;20240;-70
2021/03/06 17:23:12;;;;;;;5.07;2.00;;;6.20;89.70;;;;;;4936047;29;20241;-70
2021/03/06 17:25:38;;;;;;;6.43;2.20;;;6.20;90.30;;;;;;4935961;29;20212;-71
2021/03/06 17:28:05;;;;;;;5.43;2.30;;;6.20;90.60;;;;;;4935800;29;20241;-70
2021/03/06 17:30:31;;;;;;;6.73;2.00;;;6.10;90.80;;;;;;4935741;29;20279;-70
2021/03/06 17:32:57;;;;;;;3.13;2.00;;;6.00;91.00;;;;;;4935582;29;20212;-70
2021/03/06 17:35:24;;;;;;;5.43;2.50;;;6.00;91.30;;;;;;4935579;29;20216;-70
2021/03/06 17:37:50;;;;;;;5.13;2.40;;;5.90;91.40;;;;;;4935809;29;20209;-71
2021/03/06 17:40:17;;;;;;;4.50;2.27;;;5.90;91.60;;;;;;4935424;29;20224;-70
2021/03/06 17:42:43;;;;;;;5.83;2.20;;;5.90;91.90;;;;;;4935666;29;20251;-70
2021/03/06 17:45:12;;;;;;;4.70;2.60;;;5.80;92.10;;;;;;4935520;29;20216;-71
2021/03/06 17:47:38;;;;;;;4.53;2.13;;;5.80;92.30;;;;;;4935686;29;20263;-70
2021/03/06 17:50:08;;;;;;;5.20;2.50;;;5.70;92.70;;;;;;4935724;29;20233;-70
2021/03/06 17:52:34;;;;;;;3.10;2.00;;;5.60;93.10;;;;;;4935557;29;20616;-71
2021/03/06 17:55:01;;;;;;;3.77;2.00;;;5.50;93.30;;;;;;4935563;29;20251;-70
2021/03/06 17:57:28;;;;;;;3.33;2.03;;;5.40;93.50;;;;;;4935288;29;20213;-70
2021/03/06 17:59:54;;;;;;;5.87;2.50;;;5.40;93.80;;;;;;4935304;29;20268;-70
2021/03/06 18:02:20;;;;;;;3.23;2.23;;;5.40;94.00;;;;;;4935281;29;20241;-71
2021/03/06 18:04:46;;;;;;;3.37;2.40;;;5.40;94.20;;;;;;4935424;29;20212;-70
2021/03/06 18:07:13;;;;;;;4.97;2.47;;;5.40;94.30;;;;;;4935610;29;20216;-70
2021/03/06 18:09:39;;;;;;;4.63;2.90;;;5.40;94.50;;;;;;4935380;29;20209;-70
2021/03/06 18:12:06;;;;;;;5.23;3.57;;;5.30;94.60;;;;;;4935523;29;20216;-70
2021/03/06 18:14:34;;;;;;;8.20;3.27;;;5.40;94.70;;;;;;4935305;29;20217;-70
2021/03/06 18:17:00;;;;;;;5.77;3.43;;;5.20;95.00;;;;;;4935068;29;20675;-70
2021/03/06 18:19:26;;;;;;;8.40;3.30;;;5.10;95.40;;;;;;4935233;29;20209;-70
2021/03/06 18:21:53;;;;;;;6.03;3.23;;;5.00;95.80;;;;;;4935304;29;20264;-70
2021/03/06 18:24:19;;;;;;;4.97;3.07;;;4.90;96.10;;;;;;4935515;29;20209;-70
2021/03/06 18:26:46;;;;;;;8.87;3.10;;;4.90;96.10;;;;;;4935408;29;20208;-70
2021/03/06 18:29:12;;;;;;;5.57;3.00;;;4.90;96.20;;;;;;4935212;29;20260;-70
2021/03/06 18:31:39;;;;;;;6.83;2.80;;;4.80;96.10;;;;;;4934886;29;20232;-70
2021/03/06 18:34:06;;;;;;;5.67;2.43;;;4.80;96.30;;;;;;4935206;29;20215;-70
2021/03/06 18:36:32;;;;;;;4.57;2.37;;;4.80;96.60;;;;;;4935154;29;20213;-70
2021/03/06 18:38:59;;;;;;;4.13;2.90;;;4.70;96.60;;;;;;4935247;29;20220;-70
2021/03/06 18:41:25;;;;;;;5.17;3.00;;;4.70;97.00;;;;;;4934849;29;20233;-71
2021/03/06 18:43:51;;;;;;;7.83;3.03;;;4.60;97.10;;;;;;4935625;29;20256;-70
2021/03/06 18:46:18;;;;;;;4.17;2.60;;;4.80;96.90;;;;;;4938321;29;20216;-70
2021/03/06 18:48:45;;;;;;;4.63;2.60;;;4.80;97.00;;;;;;4938713;29;20215;-70
2021/03/06 18:51:11;;;;;;;7.23;2.77;;;4.70;97.10;;;;;;4938444;29;20224;-70
2021/03/06 18:53:37;;;;;;;3.40;2.67;;;4.80;97.10;;;;;;4938312;29;20213;-71
2021/03/06 18:56:04;;;;;;;4.77;2.83;;;4.90;97.10;;;;;;4938156;29;20212;-71
2021/03/06 18:58:31;;;;;;;8.93;3.40;;;5.00;97.30;;;;;;4938197;29;20213;-70
2021/03/06 19:00:57;;;;;;;6.77;3.37;;;5.00;97.20;;;;;;4937842;29;20284;-71
2021/03/06 19:03:23;;;;;;;5.77;3.03;;;4.90;97.20;;;;;;4938365;29;20577;-70
2021/03/06 19:05:51;;;;;;;4.83;3.17;;;4.90;97.40;;;;;;4938196;29;20572;-70
2021/03/06 19:08:19;;;;;;;7.03;3.50;;;4.90;97.90;;;;;;4938439;29;20217;-71
2021/03/06 19:10:46;;;;;;;5.20;3.10;;;4.70;98.40;;;;;;4937943;29;20233;-71
2021/03/06 19:13:12;;;;;;;7.47;3.03;;;4.60;98.40;;;;;;4937699;29;20228;-71
2021/03/06 19:15:38;;;;;;;6.20;3.23;;;4.40;98.70;;;;;;4938109;29;20209;-71
2021/03/06 19:18:05;;;;;;;5.47;3.37;;;4.30;99.10;;;;;;4938028;29;20215;-71
2021/03/06 19:20:32;;;;;;;4.80;2.90;;;4.30;99.30;;;;;;4937948;29;20229;-71
2021/03/06 19:22:59;;;;;;;7.30;3.47;;;4.30;99.40;;;;;;4937707;29;20262;-71
2021/03/06 19:25:27;;;;;;;8.60;3.83;;;4.30;99.60;;;;;;4937936;29;20261;-71
2021/03/06 19:27:54;;;;;;;4.40;2.83;;;4.40;99.60;;;;;;4937803;29;20212;-71
2021/03/06 19:30:21;;;;;;;7.07;4.27;;;4.40;99.70;;;;;;4938215;29;20239;-71
2021/03/06 19:32:48;;;;;;;4.83;3.20;;;4.40;99.90;;;;;;4938650;29;20213;-71
2021/03/06 19:35:17;;;;;;;6.30;3.70;;;4.30;99.90;;;;;;4938240;29;20256;-71
2021/03/06 19:37:44;;;;;;;6.07;3.53;;;4.40;99.90;;;;;;4938618;29;20219;-71
2021/03/06 19:40:12;;;;;;;10.67;4.13;;;4.50;99.90;;;;;;4938383;29;20303;-72
2021/03/06 19:42:39;;;;;;;8.70;4.07;;;4.50;99.90;;;;;;4937968;29;20243;-71
2021/03/06 19:45:06;;;;;;;7.53;4.53;;;4.50;99.90;;;;;;4938049;29;20548;-71
2021/03/06 19:47:33;;;;;;;7.73;4.53;;;4.40;99.90;;;;;;4937339;29;20209;-71
2021/03/06 19:49:59;;;;;;;10.80;5.10;;;4.50;99.90;;;;;;4937265;29;20236;-70
2021/03/06 19:52:25;;;;;;;7.53;3.57;;;4.40;99.90;;;;;;4937402;29;20219;-70
2021/03/06 19:54:52;;;;;;;5.97;4.23;;;4.30;99.90;;;;;;4936863;29;20660;-70
2021/03/06 19:57:19;;;;;;;8.07;5.03;;;4.20;99.90;;;;;;4937269;29;20212;-71
2021/03/06 19:59:45;;;;;;;7.80;4.20;;;4.00;99.90;;;;;;4933249;29;20216;-70
2021/03/06 20:02:11;;;;;;;8.60;4.17;;;3.90;99.90;;;;;;4927096;29;20571;-71
2021/03/06 20:04:38;;;;;;;9.50;5.07;;;3.80;99.90;;;;;;4933652;29;20698;-71
2021/03/06 20:07:06;;;;;;;13.60;5.20;;;3.70;99.90;;;;;;4932372;29;20217;-71
2021/03/06 20:09:33;;;;;;;9.77;5.17;;;3.70;99.90;;;;;;4934954;29;20295;-71
2021/03/06 20:12:00;;;;;;;14.30;6.53;;;3.60;99.90;;;;;;4936094;29;20232;-71
2021/03/06 20:14:36;;;;;;;11.70;6.10;;;3.50;99.90;;;;;;4930640;29;20240;-71
2021/03/06 20:17:03;;;;;;;12.73;5.80;;;3.50;99.90;;;;;;4932898;29;20231;-71
2021/03/06 20:19:30;;;;;;;7.30;4.57;;;3.50;99.90;;;;;;4936007;29;20212;-71
2021/03/06 20:21:56;;;;;;;7.77;4.40;;;3.40;99.90;;;;;;4930942;29;20712;-71
2021/03/06 20:24:22;;;;;;;7.60;4.87;;;3.40;99.90;;;;;;4931911;29;20237;-71
2021/03/06 20:26:48;;;;;;;6.47;3.73;;;3.40;99.90;;;;;;4932948;29;20209;-72
2021/03/06 20:29:15;;;;;;;6.73;4.07;;;3.30;99.90;;;;;;4935834;29;20231;-71
2021/03/06 20:31:42;;;;;;;5.53;3.83;;;3.10;99.90;;;;;;4933494;29;20229;-72
2021/03/06 20:34:08;;;;;;;12.20;4.40;;;3.20;99.90;;;;;;4934734;29;20735;-72
2021/03/06 20:36:35;;;;;;;9.37;4.93;;;3.10;99.90;;;;;;4933127;29;20216;-71
2021/03/06 20:39:01;;;;;;;13.63;4.53;;;3.00;99.90;;;;;;4932498;29;20209;-72
2021/03/06 20:41:27;;;;;;;8.87;5.07;;;2.90;99.90;;;;;;4932541;29;20232;-71
2021/03/06 20:43:54;;;;;;;12.03;4.90;;;2.80;99.90;;;;;;4935742;29;20253;-71
2021/03/06 20:46:20;;;;;;;10.60;5.07;;;2.80;99.90;;;;;;4933286;29;20672;-72
2021/03/06 20:48:47;;;;;;;10.60;5.13;;;2.80;99.90;;;;;;4932648;29;20580;-71
2021/03/06 20:51:14;;;;;;;11.60;5.13;;;2.70;99.90;;;;;;4934012;29;20232;-71
2021/03/06 20:53:40;;;;;;;9.70;5.10;;;2.70;99.90;;;;;;4933326;29;20240;-72
2021/03/06 20:56:06;;;;;;;9.03;4.80;;;2.80;99.90;;;;;;4932117;29;20212;-72
2021/03/06 20:58:33;;;;;;;11.33;4.27;;;2.70;99.90;;;;;;4932291;29;20204;-71
2021/03/06 21:00:59;;;;;;;10.90;5.13;;;2.60;99.90;;;;;;4935385;29;20228;-71
2021/03/06 21:03:25;;;;;;;11.57;4.80;;;2.40;99.90;;;;;;4931346;29;20719;-72
2021/03/06 21:05:52;;;;;;;9.67;4.93;;;2.30;99.90;;;;;;4935858;29;20217;-72
2021/03/06 21:08:18;;;;;;;10.47;5.00;;;2.20;99.90;;;;;;4931936;29;20564;-72
2021/03/06 21:10:45;;;;;;;8.57;5.47;;;2.10;99.90;;;;;;4928231;29;20225;-72
2021/03/06 21:13:11;;;;;;;9.70;5.23;;;2.00;99.90;;;;;;4928352;29;20213;-72